Time;durP1;ratioP1;P1;durP2;ratioP2;P2;SDS_P1;SDS_P2;PMS_P1;PMS_P2;Temp;Humidity;BMP_temperature;BMP_pressure;BME280_temperature;BME280_humidity;BME280_pressure;Samples;Min_cycle;Max_cycle;Signal;HPM_P1;HPM_P2
2024/01/25 00:01:28;;;;;;;1999.90;999.90;;;9.70;1.00;;;;;;5013297;28;20697;-67
2024/01/25 00:03:54;;;;;;;1999.90;999.90;;;9.40;1.00;;;;;;5013194;28;20178;-67
2024/01/25 00:06:20;;;;;;;1999.90;999.90;;;9.20;1.00;;;;;;5012879;28;20624;-67
2024/01/25 00:08:46;;;;;;;1999.90;999.90;;;9.40;1.00;;;;;;5013071;28;20305;-67
2024/01/25 00:11:12;;;;;;;1999.90;999.90;;;9.30;1.00;;;;;;5013546;28;20494;-67
2024/01/25 00:13:38;;;;;;;1999.90;999.90;;;9.30;1.00;;;;;;5013633;28;20927;-68
2024/01/25 00:16:04;;;;;;;1999.90;999.90;;;9.40;1.00;;;;;;5013221;28;20678;-67
2024/01/25 00:18:30;;;;;;;1999.90;999.90;;;9.10;1.00;;;;;;5013437;28;20441;-66
2024/01/25 00:20:56;;;;;;;1999.90;999.90;;;9.40;1.00;;;;;;5013612;28;20253;-68
2024/01/25 00:23:21;;;;;;;1999.90;999.90;;;9.40;1.00;;;;;;5013335;28;20650;-68
2024/01/25 00:25:47;;;;;;;1999.90;999.90;;;9.60;1.00;;;;;;5013014;28;20183;-68
2024/01/25 00:28:12;;;;;;;1999.90;999.90;;;9.40;1.00;;;;;;5013157;28;20191;-68
2024/01/25 00:30:39;;;;;;;1999.90;999.90;;;9.40;1.00;;;;;;5013261;28;20170;-67
2024/01/25 00:33:04;;;;;;;1999.90;999.90;;;9.40;1.00;;;;;;5013172;28;20173;-67
2024/01/25 00:35:31;;;;;;;1999.90;999.90;;;9.30;1.00;;;;;;5013120;28;20412;-68
2024/01/25 00:37:56;;;;;;;1999.90;999.90;;;9.10;1.00;;;;;;5012922;28;20237;-66
2024/01/25 00:40:22;;;;;;;1999.90;999.90;;;9.10;1.00;;;;;;5013110;28;20481;-68
2024/01/25 00:42:52;;;;;;;1999.90;999.90;;;9.10;1.00;;;;;;5013314;28;20258;-67
2024/01/25 00:45:19;;;;;;;1999.90;999.90;;;9.10;1.00;;;;;;5012872;28;20209;-68
2024/01/25 00:47:45;;;;;;;1999.90;999.90;;;9.00;1.00;;;;;;5012622;28;20441;-68
2024/01/25 00:50:11;;;;;;;1999.90;999.90;;;9.00;1.00;;;;;;5012988;28;20418;-67
2024/01/25 00:52:37;;;;;;;1999.90;999.90;;;9.00;1.00;;;;;;5012612;28;20915;-66
2024/01/25 00:55:03;;;;;;;1999.90;999.90;;;9.00;1.00;;;;;;5012981;28;20642;-67
2024/01/25 00:57:29;;;;;;;1999.90;999.90;;;8.90;1.00;;;;;;5012732;28;20868;-66
2024/01/25 00:59:55;;;;;;;1999.90;999.90;;;9.00;1.00;;;;;;5012824;28;20418;-68
2024/01/25 01:02:22;;;;;;;1999.90;999.90;;;9.00;1.00;;;;;;5012925;28;20544;-68
2024/01/25 01:04:48;;;;;;;1999.90;999.90;;;8.90;1.00;;;;;;5013032;28;20787;-68
2024/01/25 01:07:14;;;;;;;1999.90;999.90;;;8.90;1.00;;;;;;5012399;28;20426;-67
2024/01/25 01:09:40;;;;;;;1999.90;999.90;;;8.90;1.00;;;;;;5012914;28;20417;-67
2024/01/25 01:12:06;;;;;;;1999.90;999.90;;;9.10;1.00;;;;;;5012751;28;20782;-67
2024/01/25 01:14:32;;;;;;;1999.90;999.90;;;9.40;1.00;;;;;;5012736;28;20171;-68
2024/01/25 01:16:58;;;;;;;1999.90;999.90;;;9.20;1.00;;;;;;5012196;28;20483;-68
2024/01/25 01:19:23;;;;;;;1999.90;999.90;;;9.50;1.00;;;;;;5012763;28;20174;-67
2024/01/25 01:21:49;;;;;;;1999.90;999.90;;;9.40;1.00;;;;;;5012392;28;20217;-68
2024/01/25 01:24:14;;;;;;;1999.90;999.90;;;9.50;1.00;;;;;;5012594;28;20258;-68
2024/01/25 01:26:41;;;;;;;1999.90;999.90;;;9.00;1.00;;;;;;5012375;28;20606;-68
2024/01/25 01:29:07;;;;;;;1999.90;999.90;;;9.30;1.00;;;;;;5012651;28;20552;-68
2024/01/25 01:31:33;;;;;;;1999.90;999.90;;;9.40;1.00;;;;;;5012282;28;20463;-67
2024/01/25 01:33:59;;;;;;;1999.90;999.90;;;9.00;1.00;;;;;;5012717;28;20415;-68
2024/01/25 01:36:25;;;;;;;1999.90;999.90;;;9.00;1.00;;;;;;5012019;28;20829;-68
2024/01/25 01:38:50;;;;;;;1999.90;999.90;;;9.30;1.00;;;;;;5012504;28;20247;-67
2024/01/25 01:41:16;;;;;;;1999.90;999.90;;;8.80;1.00;;;;;;5012461;28;20175;-67
2024/01/25 01:43:41;;;;;;;1999.90;999.90;;;8.90;1.00;;;;;;5012410;28;20175;-67
2024/01/25 01:46:20;;;;;;;1999.90;999.90;;;9.10;1.00;;;;;;5012256;28;20232;-68
2024/01/25 01:48:46;;;;;;;1999.90;999.90;;;8.30;1.00;;;;;;5012476;28;20173;-66
2024/01/25 01:51:12;;;;;;;1999.90;999.90;;;8.90;1.00;;;;;;5012261;28;20417;-66
2024/01/25 01:53:37;;;;;;;1999.90;999.90;;;9.20;1.00;;;;;;5030346;28;20192;-67
2024/01/25 01:56:04;;;;;;;1999.90;999.90;;;9.10;1.00;;;;;;5031760;28;20281;-68
2024/01/25 01:58:31;;;;;;;1999.90;999.90;;;8.30;1.00;;;;;;5031871;28;20204;-68
2024/01/25 02:00:57;;;;;;;1999.90;999.90;;;8.90;1.00;;;;;;5031831;28;20413;-67
2024/01/25 02:03:23;;;;;;;1999.90;999.90;;;9.20;1.00;;;;;;5032192;28;20403;-68
2024/01/25 02:05:49;;;;;;;1999.90;999.90;;;9.00;1.00;;;;;;5033767;28;20437;-67
2024/01/25 02:08:14;;;;;;;1999.90;999.90;;;9.00;1.00;;;;;;5035380;28;20431;-67
2024/01/25 02:10:40;;;;;;;1999.90;999.90;;;8.80;1.00;;;;;;5035633;28;20177;-67
2024/01/25 02:13:06;;;;;;;1999.90;999.90;;;8.40;1.00;;;;;;5035596;28;20170;-68
2024/01/25 02:15:31;;;;;;;1999.90;999.90;;;8.90;1.00;;;;;;5035437;28;20241;-67
2024/01/25 02:17:57;;;;;;;1999.90;999.90;;;8.90;1.00;;;;;;5035164;28;20209;-67
2024/01/25 02:20:22;;;;;;;1999.90;999.90;;;8.50;1.00;;;;;;5035340;28;20199;-67
2024/01/25 02:22:48;;;;;;;1999.90;999.90;;;8.40;1.00;;;;;;5035340;28;20204;-65
2024/01/25 02:25:14;;;;;;;1999.90;999.90;;;8.70;1.00;;;;;;5035359;28;20252;-68
2024/01/25 02:27:39;;;;;;;1999.90;999.90;;;8.40;1.00;;;;;;5035123;28;20189;-68
2024/01/25 02:30:06;;;;;;;1999.90;999.90;;;8.80;1.00;;;;;;5035279;28;20517;-68
2024/01/25 02:32:32;;;;;;;1999.90;999.90;;;8.10;1.00;;;;;;5035114;28;20179;-68
2024/01/25 02:34:58;;;;;;;1999.90;999.90;;;8.80;1.00;;;;;;5035168;28;20404;-68
2024/01/25 02:37:23;;;;;;;1999.90;999.90;;;9.00;1.00;;;;;;5034681;28;20266;-68
2024/01/25 02:39:49;;;;;;;1999.90;999.90;;;8.30;1.00;;;;;;5034881;28;20217;-67
2024/01/25 02:42:16;;;;;;;1999.90;999.90;;;8.80;1.00;;;;;;5035014;28;20215;-67
2024/01/25 02:44:42;;;;;;;1999.90;999.90;;;8.50;1.00;;;;;;5034933;28;20400;-66
2024/01/25 02:47:08;;;;;;;1999.90;999.90;;;8.50;1.00;;;;;;5034137;28;20431;-66
2024/01/25 02:49:34;;;;;;;1999.90;999.90;;;8.80;1.00;;;;;;5034361;28;20422;-66
2024/01/25 02:51:59;;;;;;;1999.90;999.90;;;8.40;1.00;;;;;;5034333;28;20636;-67
2024/01/25 02:54:25;;;;;;;1999.90;999.90;;;8.20;1.00;;;;;;5034258;28;20656;-67
2024/01/25 02:56:50;;;;;;;1999.90;999.90;;;8.80;1.00;;;;;;5033847;28;20204;-66
2024/01/25 02:59:16;;;;;;;1999.90;999.90;;;8.80;1.00;;;;;;5034439;28;20300;-66
2024/01/25 03:01:42;;;;;;;1999.90;999.90;;;8.80;1.00;;;;;;5034227;28;20659;-66
2024/01/25 03:04:08;;;;;;;1999.90;999.90;;;8.70;1.00;;;;;;5034042;28;20657;-66
2024/01/25 03:06:34;;;;;;;1999.90;999.90;;;8.70;1.00;;;;;;5033784;28;20430;-65
2024/01/25 03:08:59;;;;;;;1999.90;999.90;;;8.40;1.00;;;;;;5034024;28;20776;-67
2024/01/25 03:11:25;;;;;;;1999.90;999.90;;;8.50;1.00;;;;;;5034023;28;20181;-67
2024/01/25 03:13:50;;;;;;;1999.90;999.90;;;8.70;5.80;;;;;;5033942;28;20202;-66
2024/01/25 03:16:16;;;;;;;1999.90;999.90;;;8.40;1.00;;;;;;5033188;28;20206;-66
2024/01/25 03:18:42;;;;;;;1999.90;999.90;;;8.70;1.00;;;;;;5033833;28;20539;-67
2024/01/25 03:21:07;;;;;;;1999.90;999.90;;;8.70;1.00;;;;;;5033750;28;20178;-67
2024/01/25 03:23:33;;;;;;;1999.90;999.90;;;8.60;1.00;;;;;;5033773;28;20168;-65
2024/01/25 03:26:01;;;;;;;1999.90;999.90;;;8.60;2.10;;;;;;5033503;28;20172;-66
2024/01/25 03:28:26;;;;;;;1999.90;999.90;;;8.80;2.40;;;;;;5033619;28;20655;-65
2024/01/25 03:30:52;;;;;;;1999.90;999.90;;;8.70;1.00;;;;;;5033635;28;20403;-66
2024/01/25 03:33:17;;;;;;;1999.90;999.90;;;8.60;1.00;;;;;;5033510;28;20167;-67
2024/01/25 03:35:43;;;;;;;1999.90;999.90;;;8.30;1.00;;;;;;5033375;28;20267;-66
2024/01/25 03:38:09;;;;;;;1999.90;999.90;;;8.50;1.00;;;;;;5033325;28;20666;-66
2024/01/25 03:40:34;;;;;;;1999.90;999.90;;;8.30;1.00;;;;;;5033426;28;20166;-66
2024/01/25 03:43:00;;;;;;;1999.90;999.90;;;8.40;1.00;;;;;;5033328;28;20247;-66
2024/01/25 03:45:25;;;;;;;1999.90;999.90;;;8.10;1.00;;;;;;5033386;28;20246;-65
2024/01/25 03:47:51;;;;;;;1999.90;999.90;;;8.30;1.00;;;;;;5032982;28;20202;-67
2024/01/25 03:50:16;;;;;;;1999.90;999.90;;;8.20;1.90;;;;;;5033271;28;20210;-66
2024/01/25 03:52:42;;;;;;;1999.90;999.90;;;8.10;1.00;;;;;;5033211;28;20182;-66
2024/01/25 03:55:08;;;;;;;1999.90;999.90;;;8.20;8.80;;;;;;5033198;28;20198;-65
2024/01/25 03:57:33;;;;;;;1999.90;999.90;;;7.60;9.10;;;;;;5032974;28;20211;-66
2024/01/25 03:59:59;;;;;;;1999.90;999.90;;;7.80;2.50;;;;;;5033047;28;20177;-66
2024/01/25 04:02:24;;;;;;;1999.90;999.90;;;8.10;15.30;;;;;;5032970;28;20165;-66
2024/01/25 04:04:50;;;;;;;1999.90;999.90;;;8.20;19.40;;;;;;5032987;28;20635;-68
2024/01/25 04:07:15;;;;;;;1999.90;999.90;;;7.80;24.00;;;;;;5032578;28;20188;-66
2024/01/25 04:09:41;;;;;;;1999.90;999.90;;;7.90;25.20;;;;;;5031549;28;20226;-66
2024/01/25 04:12:07;;;;;;;1999.90;999.90;;;7.90;33.60;;;;;;5032808;28;20175;-66
2024/01/25 04:14:32;;;;;;;1999.90;999.90;;;7.50;43.60;;;;;;5032928;28;20180;-67
2024/01/25 04:16:59;;;;;;;1999.90;999.90;;;7.90;49.60;;;;;;5032400;28;20458;-66
2024/01/25 04:19:24;;;;;;;1999.90;999.90;;;8.00;59.90;;;;;;5032927;28;20238;-67
2024/01/25 04:21:50;;;;;;;1999.90;999.90;;;8.20;75.20;;;;;;5032759;28;20399;-66
2024/01/25 04:24:15;;;;;;;1999.90;999.90;;;7.70;91.50;;;;;;5032603;28;20234;-66
2024/01/25 04:26:41;;;;;;;1999.90;999.90;;;7.90;99.90;;;;;;5032309;28;20188;-66
2024/01/25 04:29:06;;;;;;;1999.90;999.90;;;8.10;99.90;;;;;;5031920;28;20254;-68
2024/01/25 04:31:32;;;;;;;1999.90;999.90;;;7.70;99.90;;;;;;5032410;28;20200;-66
2024/01/25 04:33:58;;;;;;;1999.90;999.90;;;8.00;99.90;;;;;;5032444;28;20181;-65
2024/01/25 04:36:23;;;;;;;1999.90;999.90;;;7.30;99.90;;;;;;5031896;28;20192;-67
2024/01/25 04:38:49;;;;;;;1999.90;999.90;;;7.70;99.90;;;;;;5032372;28;20195;-66
2024/01/25 04:41:14;;;;;;;1999.90;999.90;;;7.70;99.90;;;;;;5032347;28;20169;-66
2024/01/25 04:43:40;;;;;;;1999.90;999.90;;;7.90;99.90;;;;;;5032261;28;20628;-66
2024/01/25 04:46:06;;;;;;;1999.90;999.90;;;7.40;99.90;;;;;;5032028;28;20180;-66
2024/01/25 04:48:32;;;;;;;1999.90;999.90;;;7.40;99.90;;;;;;5032229;28;20196;-66
2024/01/25 04:50:58;;;;;;;1999.90;999.90;;;7.50;99.90;;;;;;5032307;28;20944;-67
2024/01/25 04:53:24;;;;;;;1999.90;999.90;;;7.40;99.90;;;;;;5032493;28;20168;-67
2024/01/25 04:55:49;;;;;;;1999.90;999.90;;;7.20;99.90;;;;;;5032440;28;20458;-67
2024/01/25 04:58:15;;;;;;;1999.90;999.90;;;7.40;99.90;;;;;;5032414;28;20189;-66
2024/01/25 05:00:40;;;;;;;1999.90;999.90;;;7.40;99.90;;;;;;5032250;28;20169;-68
2024/01/25 05:03:06;;;;;;;1999.90;999.90;;;7.20;99.90;;;;;;5032308;28;20169;-67
2024/01/25 05:05:32;;;;;;;1999.90;999.90;;;7.10;99.90;;;;;;5032114;28;20168;-68
2024/01/25 05:07:57;;;;;;;1999.90;999.90;;;7.10;99.90;;;;;;5032042;28;20212;-66
2024/01/25 05:10:25;;;;;;;1999.90;999.90;;;7.10;99.90;;;;;;5032349;28;20168;-68
2024/01/25 05:12:51;;;;;;;1999.90;999.90;;;7.50;99.90;;;;;;5032210;28;20263;-68
2024/01/25 05:15:16;;;;;;;1999.90;999.90;;;7.10;99.90;;;;;;5032178;28;20896;-68
2024/01/25 05:17:42;;;;;;;1999.90;999.90;;;7.00;99.90;;;;;;5031644;28;20238;-68
2024/01/25 05:20:08;;;;;;;1999.90;999.90;;;7.00;99.90;;;;;;5031948;28;20164;-67
2024/01/25 05:22:40;;;;;;;1999.90;999.90;;;6.80;99.90;;;;;;5032094;28;20208;-67
2024/01/25 05:25:06;;;;;;;1999.90;999.90;;;7.00;99.90;;;;;;5031965;28;20777;-65
2024/01/25 05:27:31;;;;;;;1999.90;999.90;;;6.70;99.90;;;;;;5031618;28;20473;-66
2024/01/25 05:29:57;;;;;;;1999.90;999.90;;;7.00;99.90;;;;;;5031904;28;20407;-66
2024/01/25 05:32:22;;;;;;;1999.90;999.90;;;7.10;99.90;;;;;;5031708;28;20561;-65
2024/01/25 05:34:48;;;;;;;1999.90;999.90;;;6.70;99.90;;;;;;5031770;28;20256;-65
2024/01/25 05:37:13;;;;;;;1999.90;999.90;;;6.70;99.90;;;;;;5031210;28;20258;-66
2024/01/25 05:39:39;;;;;;;1999.90;999.90;;;6.70;99.90;;;;;;5033640;28;20168;-66
2024/01/25 05:42:05;;;;;;;1999.90;999.90;;;6.70;99.90;;;;;;5035716;28;20636;-65
2024/01/25 05:44:30;;;;;;;1999.90;999.90;;;6.60;99.90;;;;;;5035584;28;20168;-65
2024/01/25 05:46:56;;;;;;;1999.90;999.90;;;6.70;99.90;;;;;;5035345;28;20199;-64
2024/01/25 05:49:21;;;;;;;1999.90;999.90;;;6.70;99.90;;;;;;5035537;28;20261;-65
2024/01/25 05:51:47;;;;;;;1999.90;999.90;;;6.70;99.90;;;;;;5035555;28;20175;-65
2024/01/25 05:54:12;;;;;;;1999.90;999.90;;;6.60;99.90;;;;;;5035563;28;20645;-65
2024/01/25 05:56:38;;;;;;;1999.90;999.90;;;6.70;99.90;;;;;;5035072;28;20203;-63
2024/01/25 05:59:03;;;;;;;1999.90;999.90;;;6.60;99.90;;;;;;5035250;28;20636;-65
2024/01/25 06:01:29;;;;;;;1999.90;999.90;;;6.70;99.90;;;;;;5035385;28;20168;-65
2024/01/25 06:03:55;;;;;;;1999.90;999.90;;;7.00;99.90;;;;;;5035204;28;20635;-66
2024/01/25 06:06:20;;;;;;;1999.90;999.90;;;6.30;99.90;;;;;;5034747;28;20180;-66
2024/01/25 06:08:46;;;;;;;1999.90;999.90;;;6.50;99.90;;;;;;5035168;28;20639;-66
2024/01/25 06:11:11;;;;;;;1999.90;999.90;;;6.50;99.90;;;;;;5035308;28;20177;-66
2024/01/25 06:13:37;;;;;;;1999.90;999.90;;;6.50;99.90;;;;;;5035261;28;20172;-65
2024/01/25 06:16:03;;;;;;;1999.90;999.90;;;6.50;99.90;;;;;;5034695;28;20663;-65
2024/01/25 06:18:28;;;;;;;1999.90;999.90;;;6.30;99.90;;;;;;5034873;28;20188;-65
2024/01/25 06:20:54;;;;;;;1999.90;999.90;;;6.80;99.90;;;;;;5034924;28;20173;-66
2024/01/25 06:23:20;;;;;;;1999.90;999.90;;;7.10;99.90;;;;;;5034886;28;20533;-65
2024/01/25 06:25:45;;;;;;;1999.90;999.90;;;6.80;99.90;;;;;;5034782;28;20510;-68
2024/01/25 06:28:11;;;;;;;1999.90;999.90;;;6.60;99.90;;;;;;5035056;28;20207;-68
2024/01/25 06:30:36;;;;;;;1999.90;999.90;;;6.80;99.90;;;;;;5034740;28;20169;-68
2024/01/25 06:33:03;;;;;;;1999.90;999.90;;;7.00;99.90;;;;;;5034744;28;20169;-68
2024/01/25 06:35:28;;;;;;;1999.90;999.90;;;6.50;99.90;;;;;;5034597;28;20207;-68
2024/01/25 06:37:54;;;;;;;1999.90;999.90;;;6.90;99.90;;;;;;5034266;28;20487;-68
2024/01/25 06:40:19;;;;;;;1999.90;999.90;;;6.70;99.90;;;;;;5034758;28;20169;-67
2024/01/25 06:42:45;;;;;;;1999.90;999.90;;;6.70;99.90;;;;;;5034623;28;20647;-66
2024/01/25 06:45:11;;;;;;;1999.90;999.90;;;6.70;99.90;;;;;;5034532;28;20538;-68
2024/01/25 06:47:36;;;;;;;1999.90;999.90;;;6.50;99.90;;;;;;5034175;28;20219;-68
2024/01/25 06:50:02;;;;;;;1999.90;999.90;;;6.60;99.90;;;;;;5034316;28;20259;-68
2024/01/25 06:52:28;;;;;;;1999.90;999.90;;;7.30;99.90;;;;;;5033836;28;20199;-67
2024/01/25 06:54:53;;;;;;;1999.90;999.90;;;6.70;99.90;;;;;;5034270;28;20176;-67
2024/01/25 06:57:20;;;;;;;1999.90;999.90;;;6.80;99.90;;;;;;5033957;28;20447;-67
2024/01/25 06:59:45;;;;;;;1999.90;999.90;;;7.20;99.90;;;;;;5034317;28;20242;-68
2024/01/25 07:02:11;;;;;;;1999.90;999.90;;;6.70;99.90;;;;;;5034244;28;20407;-68
2024/01/25 07:04:38;;;;;;;1999.90;999.90;;;6.60;99.90;;;;;;5034542;28;20673;-68
2024/01/25 07:07:03;;;;;;;1999.90;999.90;;;6.60;99.90;;;;;;5033944;28;20923;-68
2024/01/25 07:09:29;;;;;;;1999.90;999.90;;;6.80;99.90;;;;;;5034067;28;20411;-68
2024/01/25 07:11:55;;;;;;;1999.90;999.90;;;6.70;99.90;;;;;;5034531;28;20525;-68
2024/01/25 07:14:20;;;;;;;1999.90;999.90;;;6.60;99.90;;;;;;5034424;28;20192;-68
2024/01/25 07:16:46;;;;;;;1999.90;999.90;;;7.20;99.90;;;;;;5034599;28;20208;-68
2024/01/25 07:19:11;;;;;;;1999.90;999.90;;;6.70;99.90;;;;;;5035674;28;20567;-68
2024/01/25 07:21:37;;;;;;;1999.90;999.90;;;6.50;99.90;;;;;;5035979;28;20171;-69
2024/01/25 07:24:06;;;;;;;1999.90;999.90;;;6.70;99.90;;;;;;5035575;28;20231;-69
2024/01/25 07:26:32;;;;;;;1999.90;999.90;;;6.50;99.90;;;;;;5035003;28;20168;-67
2024/01/25 07:28:59;;;;;;;1999.90;999.90;;;7.40;99.90;;;;;;5035436;28;20416;-68
2024/01/25 07:31:26;;;;;;;1999.90;999.90;;;7.40;99.90;;;;;;5035674;28;20640;-68
2024/01/25 07:33:53;;;;;;;1999.90;999.90;;;7.20;99.90;;;;;;5035545;28;20415;-67
2024/01/25 07:36:18;;;;;;;1999.90;999.90;;;6.30;99.90;;;;;;5035151;28;20965;-69
2024/01/25 07:38:46;;;;;;;1999.90;999.90;;;7.10;99.90;;;;;;5035441;28;20407;-68
2024/01/25 07:41:12;;;;;;;1999.90;999.90;;;6.80;99.90;;;;;;5035997;28;20172;-68
2024/01/25 07:43:38;;;;;;;1999.90;999.90;;;6.60;99.90;;;;;;5035428;28;20967;-66
2024/01/25 07:46:04;;;;;;;1999.90;999.90;;;6.90;99.90;;;;;;5034880;28;20442;-68
2024/01/25 07:48:29;;;;;;;1999.90;999.90;;;6.60;99.90;;;;;;5034838;28;20274;-69
2024/01/25 07:50:55;;;;;;;1999.90;999.90;;;6.60;99.90;;;;;;5035380;28;20200;-68
2024/01/25 07:53:20;;;;;;;1999.90;999.90;;;6.60;99.90;;;;;;5034908;28;20550;-68
2024/01/25 07:55:46;;;;;;;1999.90;999.90;;;6.90;99.90;;;;;;5034964;28;20208;-69
2024/01/25 07:58:12;;;;;;;1999.90;999.90;;;7.00;99.90;;;;;;5034615;28;20200;-69
2024/01/25 08:00:37;;;;;;;1999.90;999.90;;;6.70;99.90;;;;;;5035354;28;20164;-68
2024/01/25 08:03:03;;;;;;;1999.90;999.90;;;6.80;99.90;;;;;;5034643;28;20168;-68
2024/01/25 08:05:29;;;;;;;1999.90;999.90;;;6.60;99.90;;;;;;5035219;28;20247;-68
2024/01/25 08:07:54;;;;;;;1999.90;999.90;;;7.00;99.90;;;;;;5034655;28;20426;-67
2024/01/25 08:10:20;;;;;;;1999.90;999.90;;;7.30;99.90;;;;;;5035095;28;20589;-68
2024/01/25 08:12:47;;;;;;;1999.90;999.90;;;7.50;99.90;;;;;;5034493;28;20175;-69
2024/01/25 08:15:13;;;;;;;1999.90;999.90;;;7.10;99.90;;;;;;5034573;28;20235;-68
2024/01/25 08:17:38;;;;;;;1999.90;999.90;;;7.00;99.90;;;;;;5034628;28;20450;-67
2024/01/25 08:20:08;;;;;;;1999.90;999.90;;;7.80;99.90;;;;;;5034844;28;20167;-68
2024/01/25 08:22:34;;;;;;;1999.90;999.90;;;7.10;99.90;;;;;;5034495;28;20199;-69
2024/01/25 08:24:59;;;;;;;1999.90;999.90;;;8.10;99.90;;;;;;5034530;28;20407;-68
2024/01/25 08:27:25;;;;;;;1999.90;999.90;;;8.10;99.90;;;;;;5034186;28;20199;-68
2024/01/25 08:29:51;;;;;;;1999.90;999.90;;;8.20;99.90;;;;;;5034511;28;20257;-67
2024/01/25 08:32:16;;;;;;;1999.90;999.90;;;8.60;99.90;;;;;;5034455;28;20661;-69
2024/01/25 08:34:42;;;;;;;1999.90;999.90;;;8.00;99.90;;;;;;5034285;28;20170;-68
2024/01/25 08:37:07;;;;;;;1999.90;999.90;;;8.50;99.90;;;;;;5033825;28;20209;-68
2024/01/25 08:39:33;;;;;;;1999.90;999.90;;;8.20;99.90;;;;;;5034252;28;20711;-68
2024/01/25 08:42:02;;;;;;;1999.90;999.90;;;8.20;99.90;;;;;;5034428;28;20191;-67
2024/01/25 08:44:27;;;;;;;1999.90;999.90;;;8.70;99.90;;;;;;5060482;22;20225;-69
2024/01/25 08:46:53;;;;;;;1999.90;999.90;;;8.30;99.90;;;;;;5012312;28;20787;-70
2024/01/25 08:49:19;;;;;;;1999.90;999.90;;;8.10;99.90;;;;;;5012522;28;20569;-69
2024/01/25 08:51:44;;;;;;;1999.90;999.90;;;8.60;99.90;;;;;;5012508;28;20408;-69
2024/01/25 08:54:10;;;;;;;1999.90;999.90;;;8.30;99.90;;;;;;5012345;28;20715;-68
2024/01/25 08:56:36;;;;;;;1999.90;999.90;;;8.00;99.90;;;;;;5012475;28;20194;-69
2024/01/25 08:59:01;;;;;;;1999.90;999.90;;;8.20;99.90;;;;;;5012025;28;20169;-69
2024/01/25 09:01:27;;;;;;;1999.90;999.90;;;8.20;99.90;;;;;;5012425;28;20180;-69
2024/01/25 09:03:52;;;;;;;1999.90;999.90;;;8.10;99.90;;;;;;5012399;28;20545;-68
2024/01/25 09:06:19;;;;;;;1999.90;999.90;;;8.40;99.90;;;;;;5012069;28;20180;-69
2024/01/25 09:08:44;;;;;;;1999.90;999.90;;;8.50;99.90;;;;;;5012318;28;20177;-70
2024/01/25 09:11:10;;;;;;;1999.90;999.90;;;8.70;60.10;;;;;;5012229;28;20412;-69
2024/01/25 09:13:35;;;;;;;1999.90;999.90;;;8.60;30.70;;;;;;5002112;28;20202;-67
2024/01/25 09:16:01;;;;;;;1999.90;999.90;;;8.60;11.80;;;;;;5010165;28;20539;-70
2024/01/25 09:18:27;;;;;;;1999.90;999.90;;;8.30;1.00;;;;;;5012028;28;20172;-69
2024/01/25 09:20:53;;;;;;;1999.90;999.90;;;8.50;1.00;;;;;;5011329;28;20180;-70
2024/01/25 09:23:20;;;;;;;1999.90;999.90;;;9.00;1.00;;;;;;5011997;28;20214;-70
2024/01/25 09:25:46;;;;;;;1999.90;999.90;;;8.90;1.00;;;;;;5011243;28;20408;-70
2024/01/25 09:28:14;;;;;;;1999.90;999.90;;;9.20;1.00;;;;;;5011200;28;20413;-70
2024/01/25 09:30:40;;;;;;;1999.90;999.90;;;8.90;1.00;;;;;;5011963;28;20776;-69
2024/01/25 09:33:07;;;;;;;1999.90;999.90;;;8.80;1.00;;;;;;5011847;28;20479;-70
2024/01/25 09:35:32;;;;;;;1999.90;999.90;;;9.00;1.00;;;;;;5010843;28;20916;-70
2024/01/25 09:37:58;;;;;;;1999.90;999.90;;;9.30;1.00;;;;;;5011608;28;20560;-71
2024/01/25 09:40:24;;;;;;;1999.90;999.90;;;8.50;1.00;;;;;;5011675;28;20205;-69
2024/01/25 09:42:52;;;;;;;1999.90;999.90;;;8.50;1.00;;;;;;5011113;28;20525;-70
2024/01/25 09:45:19;;;;;;;1999.90;999.90;;;9.40;99.90;;;;;;5011791;28;20634;-69
2024/01/25 09:47:48;;;;;;;1999.90;999.90;;;8.50;99.90;;;;;;5011429;28;20776;-69
2024/01/25 09:50:14;;;;;;;1999.90;999.90;;;8.50;99.90;;;;;;5011177;28;20404;-69
2024/01/25 09:52:44;;;;;;;1999.90;999.90;;;8.50;99.90;;;;;;5011745;28;20977;-69
2024/01/25 09:55:14;;;;;;;1999.90;999.90;;;9.20;99.90;;;;;;5011662;28;20175;-69
2024/01/25 09:57:45;;;;;;;1999.90;999.90;;;9.30;99.90;;;;;;5010380;28;20471;-70
2024/01/25 10:00:11;;;;;;;1999.90;999.90;;;9.00;99.90;;;;;;5011735;28;20398;-70
2024/01/25 10:02:38;;;;;;;1999.90;999.90;;;8.70;99.90;;;;;;5011501;28;20453;-69
2024/01/25 10:05:04;;;;;;;1999.90;999.90;;;9.40;99.90;;;;;;5010821;28;20505;-69
2024/01/25 10:07:44;;;;;;;1999.90;999.90;;;9.00;99.90;;;;;;5010885;28;20524;-70
2024/01/25 10:10:10;;;;;;;1999.90;999.90;;;9.10;99.90;;;;;;5011583;28;20934;-69
2024/01/25 10:12:40;;;;;;;1999.90;999.90;;;9.50;15.60;;;;;;5010959;28;20414;-69
2024/01/25 10:15:06;;;;;;;1999.90;999.90;;;9.80;1.00;;;;;;5011649;28;20436;-70
2024/01/25 10:17:32;;;;;;;1999.90;999.90;;;9.40;99.90;;;;;;5010715;28;20473;-70
2024/01/25 10:19:58;;;;;;;1999.90;999.90;;;9.90;1.00;;;;;;5011080;28;20441;-69
2024/01/25 10:22:24;;;;;;;1999.90;999.90;;;8.60;1.00;;;;;;5011455;28;20167;-70
2024/01/25 10:24:50;;;;;;;1999.90;999.90;;;10.10;99.90;;;;;;5011402;28;20438;-69
2024/01/25 10:27:16;;;;;;;1999.90;999.90;;;9.90;99.90;;;;;;5013115;28;20181;-69
2024/01/25 10:29:42;;;;;;;1999.90;999.90;;;10.20;99.90;;;;;;5015070;28;20270;-70
2024/01/25 10:32:09;;;;;;;1999.90;999.90;;;9.90;20.90;;;;;;5014833;28;20497;-70
2024/01/25 10:34:36;;;;;;;1999.90;999.90;;;10.10;99.90;;;;;;5014236;28;20211;-69
2024/01/25 10:37:05;;;;;;;1999.90;999.90;;;10.20;99.90;;;;;;5013917;28;20455;-70
2024/01/25 10:39:32;;;;;;;1999.90;999.90;;;10.30;99.90;;;;;;5014839;28;20501;-70
2024/01/25 10:41:58;;;;;;;1999.90;999.90;;;10.50;1.00;;;;;;5014373;28;20481;-70
2024/01/25 10:44:24;;;;;;;1999.90;999.90;;;10.50;1.00;;;;;;5014590;28;20455;-69
2024/01/25 10:46:50;;;;;;;1999.90;999.90;;;10.50;99.90;;;;;;5013796;28;20418;-69
2024/01/25 10:49:18;;;;;;;1999.90;999.90;;;10.30;99.90;;;;;;5014214;28;20180;-70
2024/01/25 10:51:45;;;;;;;1999.90;999.90;;;10.30;26.50;;;;;;5014453;28;20415;-69
2024/01/25 10:54:12;;;;;;;1999.90;999.90;;;10.20;1.00;;;;;;5014404;28;20423;-69
2024/01/25 10:56:45;;;;;;;1999.90;999.90;;;10.40;99.90;;;;;;5013204;28;20509;-70
2024/01/25 10:59:11;;;;;;;1999.90;999.90;;;10.30;99.90;;;;;;5014547;28;20415;-70
2024/01/25 11:01:37;;;;;;;1999.90;999.90;;;10.40;99.90;;;;;;5014388;28;20959;-70
2024/01/25 11:04:11;;;;;;;1999.90;999.90;;;10.60;1.00;;;;;;5013707;28;20196;-69
2024/01/25 11:06:37;;;;;;;1999.90;999.90;;;10.60;1.00;;;;;;5013559;28;20207;-70
2024/01/25 11:09:06;;;;;;;1999.90;999.90;;;11.00;99.90;;;;;;5014220;28;20439;-71
2024/01/25 11:11:32;;;;;;;1999.90;999.90;;;10.80;98.80;;;;;;5013847;28;20192;-71
2024/01/25 11:13:59;;;;;;;1999.90;999.90;;;11.30;1.00;;;;;;5014099;28;20428;-71
2024/01/25 11:16:33;;;;;;;1999.90;999.90;;;11.40;99.90;;;;;;5013673;28;20448;-70
2024/01/25 11:19:04;;;;;;;1999.90;999.90;;;11.30;99.90;;;;;;5014452;28;20411;-70
2024/01/25 11:21:41;;;;;;;1999.90;999.90;;;11.60;3.70;;;;;;5014743;28;20407;-70
2024/01/25 11:24:16;;;;;;;1999.90;999.90;;;11.60;1.00;;;;;;5014444;28;20544;-70
2024/01/25 11:26:45;;;;;;;1999.90;999.90;;;11.60;1.00;;;;;;5013240;28;20407;-71
2024/01/25 11:29:20;;;;;;;1999.90;999.90;;;11.90;1.00;;;;;;5011425;28;20965;-70
2024/01/25 11:31:47;;;;;;;1999.90;999.90;;;11.80;99.90;;;;;;5013369;28;20452;-70
2024/01/25 11:34:15;;;;;;;1999.90;999.90;;;11.80;99.90;;;;;;5013195;28;20932;-69
2024/01/25 11:36:41;;;;;;;1999.90;999.90;;;12.20;1.00;;;;;;5012637;28;20487;-70
2024/01/25 11:39:09;;;;;;;1999.90;999.90;;;12.50;99.90;;;;;;5013882;28;20500;-69
2024/01/25 11:41:35;;;;;;;1999.90;999.90;;;12.80;90.00;;;;;;5012254;28;20420;-70
2024/01/25 11:44:02;;;;;;;1999.90;999.90;;;13.00;1.00;;;;;;5013300;28;20935;-69
2024/01/25 11:46:28;;;;;;;1999.90;999.90;;;13.20;1.00;;;;;;5013246;28;20188;-69
2024/01/25 11:48:54;;;;;;;1999.90;999.90;;;13.40;1.00;;;;;;5012898;28;20412;-70
2024/01/25 11:51:19;;;;;;;1999.90;999.90;;;13.70;1.00;;;;;;5013276;28;20430;-70
2024/01/25 11:53:45;;;;;;;1999.90;999.90;;;13.90;1.00;;;;;;5013354;28;20232;-69
2024/01/25 11:56:14;;;;;;;1999.90;999.90;;;14.10;1.00;;;;;;5012089;28;20664;-69
2024/01/25 11:58:40;;;;;;;1999.90;999.90;;;14.20;99.90;;;;;;5013318;28;20640;-70
2024/01/25 12:01:07;;;;;;;1999.90;999.90;;;14.40;99.90;;;;;;5013250;28;20517;-70
2024/01/25 12:03:38;;;;;;;1999.90;999.90;;;14.60;99.90;;;;;;5012661;28;20490;-69
2024/01/25 12:06:04;;;;;;;1999.90;999.90;;;14.60;99.90;;;;;;5012996;28;20441;-70